Irtyshsk, Kazakhstan
Current Conditions -  °F | °C
As of 10:00 AM on Friday 31 Oct 2014 (Local Time) from UASP Reporting Station
Overcast Overcast  
Wind Chill: -5°   Ceiling: 1300
Heat Index:   Visibility: 6mi
Dew Point: -1°   Wind: 16mph
Humidity: 87%   Direction: 230°SW
Pressure: 30.36"   Gusts: NA
Location:  53.33°N, 75.46°E
Report Text: UASP 310400Z 23007MPS 9999 OVC013CB 01/M01 Q1028 R21/15//60NOSIG RMK QFE759/1013
Loading
Personal Weather Stations






























Interactive Weather Map
Tropical Storm Tracking
New forecast layout! Learn more

10-Day Weather Forecast

Advertisements
Track Severe Weather on mobile